createdAt,value
2023-03-23T15:58:50.724Z,17.87
2023-03-23T16:01:22.920Z,18.13
2023-03-23T16:03:54.433Z,18.37
2023-03-23T16:06:25.157Z,17.46
2023-03-23T16:09:01.604Z,17.78
2023-03-23T16:11:33.066Z,17.48
2023-03-23T16:14:04.095Z,17.28
2023-03-23T16:16:35.436Z,17.29
2023-03-23T16:19:09.225Z,17.06
2023-03-23T16:21:37.661Z,17.08
2023-03-23T16:24:13.468Z,17.29
2023-03-23T16:26:43.860Z,17.21
2023-03-23T16:29:39.841Z,16.87
2023-03-23T16:32:16.858Z,17.11
2023-03-23T16:34:46.323Z,17.22
2023-03-23T16:37:16.945Z,17.27
2023-03-23T16:39:48.485Z,17.08
2023-03-23T16:42:21.136Z,17.05
2023-03-23T16:44:52.797Z,16.78
2023-03-23T16:47:25.908Z,16.68
2023-03-23T16:49:55.166Z,17.27
2023-03-23T16:52:23.509Z,17.28
2023-03-23T16:54:57.041Z,17.24
2023-03-23T16:57:30.339Z,16.59
2023-03-23T17:00:08.017Z,17.27
2023-03-23T17:02:40.678Z,16.98
2023-03-23T17:05:11.380Z,16.99
2023-03-23T17:07:43.836Z,17.17
2023-03-23T17:10:15.611Z,17.72
2023-03-23T17:12:47.017Z,17.39
2023-03-23T17:15:15.304Z,17.11
2023-03-23T17:17:43.669Z,16.92
2023-03-23T17:20:21.445Z,17.03
2023-03-23T17:22:53.553Z,17.26
2023-03-23T17:25:25.803Z,17.03
2023-03-23T17:28:06.029Z,15.33
2023-03-23T17:30:38.029Z,16.79
2023-03-23T17:33:06.703Z,16.69
2023-03-23T17:35:35.430Z,16.66
2023-03-23T17:38:08.917Z,16.75
2023-03-23T17:40:43.978Z,16.54
2023-03-23T17:45:59.501Z,16.45
2023-03-23T17:48:33.986Z,16.17
2023-03-23T17:51:08.649Z,16.62
2023-03-23T17:53:39.048Z,16.73
2023-03-23T17:56:13.535Z,16.56
2023-03-23T17:58:47.522Z,16.38
2023-03-23T18:01:20.672Z,16.35
2023-03-23T18:03:49.895Z,17.01
2023-03-23T18:06:21.854Z,17.02
2023-03-23T18:08:55.211Z,16.85
2023-03-23T18:11:28.785Z,16.85
2023-03-23T18:14:00.568Z,16.66
2023-03-23T18:16:41.918Z,16.70
2023-03-23T18:19:11.355Z,16.70
2023-03-23T18:21:46.098Z,16.62
2023-03-23T18:24:17.950Z,16.36
2023-03-23T18:26:46.690Z,16.51
2023-03-23T18:29:22.383Z,16.44
2023-03-23T18:31:51.487Z,16.21
2023-03-23T18:37:03.359Z,16.34
2023-03-23T18:39:38.404Z,16.36
2023-03-23T18:42:09.228Z,16.30
2023-03-23T18:44:45.956Z,16.35
2023-03-23T18:47:18.939Z,16.30
2023-03-23T18:49:59.873Z,16.33
2023-03-23T18:52:42.810Z,15.98
2023-03-23T18:55:22.048Z,15.92
2023-03-23T18:57:54.867Z,16.00
2023-03-23T19:00:25.642Z,16.07
2023-03-23T19:02:56.065Z,15.98
2023-03-23T19:05:26.643Z,16.09
2023-03-23T19:07:55.398Z,15.83
2023-03-23T19:10:29.393Z,15.71
2023-03-23T19:12:59.610Z,15.83
2023-03-23T19:15:35.491Z,16.04
2023-03-23T19:18:04.760Z,15.94
2023-03-23T19:21:06.573Z,16.05
2023-03-23T19:23:24.838Z,16.00
2023-03-23T19:26:06.313Z,15.77
2023-03-23T19:29:23.219Z,15.96
2023-03-23T19:31:38.455Z,15.85
2023-03-23T19:34:08.633Z,15.74
2023-03-23T19:36:42.914Z,15.74
2023-03-23T19:39:21.771Z,16.00
2023-03-23T19:41:49.978Z,15.56
2023-03-23T19:44:22.118Z,15.82
2023-03-23T19:46:52.272Z,15.82
2023-03-23T19:49:21.042Z,15.51
2023-03-23T19:51:50.836Z,15.77
2023-03-23T19:54:49.997Z,15.25
2023-03-23T19:57:22.401Z,15.65
2023-03-23T19:59:51.280Z,15.54
2023-03-23T20:02:29.502Z,15.59
2023-03-23T20:05:04.572Z,15.85
2023-03-23T20:07:33.440Z,15.92
2023-03-23T20:10:02.651Z,15.86
2023-03-23T20:12:40.454Z,15.61
2023-03-23T20:15:14.790Z,16.03
2023-03-23T20:17:53.462Z,15.41
2023-03-23T20:20:25.955Z,15.97
2023-03-23T20:22:57.897Z,15.13
2023-03-23T20:25:26.741Z,16.44
2023-03-23T20:27:55.143Z,16.10
2023-03-23T20:30:23.844Z,16.39
2023-03-23T20:33:00.862Z,15.89
2023-03-23T20:35:30.943Z,15.69
2023-03-23T20:38:03.258Z,15.89
2023-03-23T20:40:36.489Z,16.10
2023-03-23T20:43:10.724Z,16.12
2023-03-23T20:45:42.834Z,16.16
2023-03-23T20:48:16.361Z,15.93
2023-03-23T20:50:49.745Z,15.91
2023-03-23T20:53:20.833Z,15.90
2023-03-23T20:55:52.239Z,15.83
2023-03-23T20:58:21.656Z,15.73
2023-03-23T21:00:58.547Z,15.75
2023-03-23T21:03:33.416Z,15.40
2023-03-23T21:06:03.439Z,15.58
2023-03-23T21:08:34.173Z,15.12
2023-03-23T21:11:02.097Z,15.39
2023-03-23T21:13:30.253Z,14.86
2023-03-23T21:15:59.412Z,15.19
2023-03-23T21:18:31.856Z,15.29
2023-03-23T21:21:08.319Z,15.39
2023-03-23T21:23:49.561Z,15.81
2023-03-23T21:26:25.472Z,15.67
2023-03-23T21:28:54.244Z,15.88
2023-03-23T21:31:27.925Z,16.08
2023-03-23T21:34:03.139Z,16.43
2023-03-23T21:36:37.584Z,16.53
2023-03-23T21:39:06.568Z,16.35
2023-03-23T21:41:42.506Z,15.68
2023-03-23T21:44:15.907Z,15.73
2023-03-23T21:46:46.629Z,15.36
2023-03-23T21:49:20.158Z,15.58
2023-03-23T21:51:52.751Z,15.32
2023-03-23T21:54:23.970Z,15.59
2023-03-23T21:56:54.343Z,15.57
2023-03-23T21:59:23.871Z,15.93
2023-03-23T22:02:02.116Z,15.68
2023-03-23T22:04:31.908Z,15.68
2023-03-23T22:07:03.235Z,15.87
2023-03-23T22:09:40.876Z,16.47
2023-03-23T22:12:12.561Z,16.22
2023-03-23T22:14:41.250Z,16.53
2023-03-23T22:17:10.449Z,16.41
2023-03-23T22:19:41.151Z,16.12
2023-03-23T22:22:12.877Z,16.15
2023-03-23T22:24:43.258Z,16.50
2023-03-23T22:27:15.150Z,16.88
2023-03-23T22:29:44.503Z,16.74
2023-03-23T22:32:15.945Z,16.38
2023-03-23T22:34:49.769Z,16.69
2023-03-23T22:37:19.741Z,15.96
2023-03-23T22:39:59.821Z,15.92
2023-03-23T22:42:31.952Z,16.33
2023-03-23T22:45:01.052Z,15.39
2023-03-23T22:47:29.606Z,15.92
2023-03-23T22:49:59.986Z,15.74
2023-03-23T22:52:30.255Z,15.80
2023-03-23T22:55:01.558Z,15.92
2023-03-23T22:57:47.424Z,14.81
2023-03-23T23:00:22.793Z,15.25
2023-03-23T23:03:06.493Z,15.72
2023-03-23T23:05:38.084Z,15.38
2023-03-23T23:08:12.550Z,15.72
2023-03-23T23:10:47.816Z,16.02
2023-03-23T23:13:18.926Z,15.77
2023-03-23T23:15:55.241Z,15.98
2023-03-23T23:18:27.087Z,15.38
2023-03-23T23:21:00.792Z,14.81
2023-03-23T23:23:34.966Z,15.18
2023-03-23T23:26:03.549Z,15.59
2023-03-23T23:28:33.386Z,15.20
2023-03-23T23:31:06.990Z,15.05
2023-03-23T23:33:36.458Z,15.00
2023-03-23T23:36:17.312Z,14.76
2023-03-23T23:38:46.265Z,14.80
2023-03-23T23:41:16.784Z,14.84
2023-03-23T23:43:46.909Z,14.80
2023-03-23T23:46:21.006Z,14.91
2023-03-23T23:48:56.817Z,15.48
2023-03-23T23:51:54.089Z,15.33
2023-03-23T23:54:30.087Z,15.79
2023-03-23T23:57:00.186Z,15.86
2023-03-23T23:59:35.742Z,15.83
